sensor_id;sensor_type;location;lat;lon;timestamp;temperature;humidity
32476;DHT22;18929;48.008;10.882;2023-06-14T00:02:16;19.80;71.00
32476;DHT22;18929;48.008;10.882;2023-06-14T00:04:43;19.80;71.20
32476;DHT22;18929;48.008;10.882;2023-06-14T00:07:12;19.70;71.20
32476;DHT22;18929;48.008;10.882;2023-06-14T00:09:42;19.70;71.40
32476;DHT22;18929;48.008;10.882;2023-06-14T00:12:09;19.60;71.60
32476;DHT22;18929;48.008;10.882;2023-06-14T00:14:35;19.50;71.70
32476;DHT22;18929;48.008;10.882;2023-06-14T00:17:02;19.50;72.00
32476;DHT22;18929;48.008;10.882;2023-06-14T00:19:29;19.50;72.00
32476;DHT22;18929;48.008;10.882;2023-06-14T00:21:58;19.50;72.00
32476;DHT22;18929;48.008;10.882;2023-06-14T00:24:26;19.30;72.10
32476;DHT22;18929;48.008;10.882;2023-06-14T00:26:53;19.30;72.50
32476;DHT22;18929;48.008;10.882;2023-06-14T00:29:20;19.30;72.60
32476;DHT22;18929;48.008;10.882;2023-06-14T00:31:47;19.20;72.70
32476;DHT22;18929;48.008;10.882;2023-06-14T00:34:14;19.20;72.90
32476;DHT22;18929;48.008;10.882;2023-06-14T00:36:41;19.20;72.90
32476;DHT22;18929;48.008;10.882;2023-06-14T00:39:08;19.20;72.90
32476;DHT22;18929;48.008;10.882;2023-06-14T00:41:36;19.10;72.80
32476;DHT22;18929;48.008;10.882;2023-06-14T00:44:04;19.00;73.70
32476;DHT22;18929;48.008;10.882;2023-06-14T00:46:30;19.00;72.90
32476;DHT22;18929;48.008;10.882;2023-06-14T00:48:58;19.00;73.10
32476;DHT22;18929;48.008;10.882;2023-06-14T00:51:25;18.90;73.30
32476;DHT22;18929;48.008;10.882;2023-06-14T00:53:53;18.80;73.40
32476;DHT22;18929;48.008;10.882;2023-06-14T00:56:19;18.80;73.40
32476;DHT22;18929;48.008;10.882;2023-06-14T00:58:49;18.80;73.60
32476;DHT22;18929;48.008;10.882;2023-06-14T01:01:16;18.80;73.70
32476;DHT22;18929;48.008;10.882;2023-06-14T01:03:43;18.70;73.90
32476;DHT22;18929;48.008;10.882;2023-06-14T01:06:12;18.60;74.30
32476;DHT22;18929;48.008;10.882;2023-06-14T01:08:44;18.60;74.40
32476;DHT22;18929;48.008;10.882;2023-06-14T01:11:15;18.50;74.60
32476;DHT22;18929;48.008;10.882;2023-06-14T01:13:45;18.50;74.90
32476;DHT22;18929;48.008;10.882;2023-06-14T01:16:14;18.40;75.00
32476;DHT22;18929;48.008;10.882;2023-06-14T01:18:41;18.50;75.00
32476;DHT22;18929;48.008;10.882;2023-06-14T01:21:20;18.50;75.10
32476;DHT22;18929;48.008;10.882;2023-06-14T01:23:49;18.40;75.30
32476;DHT22;18929;48.008;10.882;2023-06-14T01:26:18;18.30;75.40
32476;DHT22;18929;48.008;10.882;2023-06-14T01:28:45;18.20;75.50
32476;DHT22;18929;48.008;10.882;2023-06-14T01:31:15;18.20;75.60
32476;DHT22;18929;48.008;10.882;2023-06-14T01:33:42;18.10;75.70
32476;DHT22;18929;48.008;10.882;2023-06-14T01:36:10;18.10;75.70
32476;DHT22;18929;48.008;10.882;2023-06-14T01:38:37;18.10;75.60
32476;DHT22;18929;48.008;10.882;2023-06-14T01:41:06;18.00;75.80
32476;DHT22;18929;48.008;10.882;2023-06-14T01:43:33;17.90;76.00
32476;DHT22;18929;48.008;10.882;2023-06-14T01:46:00;18.00;76.00
32476;DHT22;18929;48.008;10.882;2023-06-14T01:48:27;17.90;76.00
32476;DHT22;18929;48.008;10.882;2023-06-14T01:50:54;17.90;76.20
32476;DHT22;18929;48.008;10.882;2023-06-14T01:53:20;17.80;76.30
32476;DHT22;18929;48.008;10.882;2023-06-14T01:55:48;17.80;76.50
32476;DHT22;18929;48.008;10.882;2023-06-14T01:58:16;17.80;76.30
32476;DHT22;18929;48.008;10.882;2023-06-14T02:00:43;17.80;76.30
32476;DHT22;18929;48.008;10.882;2023-06-14T02:03:10;17.70;76.30
32476;DHT22;18929;48.008;10.882;2023-06-14T02:05:38;17.70;76.30
32476;DHT22;18929;48.008;10.882;2023-06-14T02:08:05;17.60;76.50
32476;DHT22;18929;48.008;10.882;2023-06-14T02:10:32;17.60;76.50
32476;DHT22;18929;48.008;10.882;2023-06-14T02:12:59;17.60;76.40
32476;DHT22;18929;48.008;10.882;2023-06-14T02:15:27;17.50;77.00
32476;DHT22;18929;48.008;10.882;2023-06-14T02:17:59;17.40;76.80
32476;DHT22;18929;48.008;10.882;2023-06-14T02:20:26;17.40;77.00
32476;DHT22;18929;48.008;10.882;2023-06-14T02:22:53;17.30;77.40
32476;DHT22;18929;48.008;10.882;2023-06-14T02:25:20;17.30;77.50
32476;DHT22;18929;48.008;10.882;2023-06-14T02:27:47;17.20;77.40
32476;DHT22;18929;48.008;10.882;2023-06-14T02:30:13;17.30;77.40
32476;DHT22;18929;48.008;10.882;2023-06-14T02:32:42;17.30;77.50
32476;DHT22;18929;48.008;10.882;2023-06-14T02:35:09;17.20;77.80
32476;DHT22;18929;48.008;10.882;2023-06-14T02:37:36;17.20;77.80
32476;DHT22;18929;48.008;10.882;2023-06-14T02:40:03;17.20;78.10
32476;DHT22;18929;48.008;10.882;2023-06-14T02:42:38;17.10;78.40
32476;DHT22;18929;48.008;10.882;2023-06-14T02:45:06;17.00;78.30
32476;DHT22;18929;48.008;10.882;2023-06-14T02:47:33;16.90;78.70
32476;DHT22;18929;48.008;10.882;2023-06-14T02:50:01;16.90;78.90
32476;DHT22;18929;48.008;10.882;2023-06-14T02:52:28;16.90;79.10
32476;DHT22;18929;48.008;10.882;2023-06-14T02:54:55;16.90;79.10
32476;DHT22;18929;48.008;10.882;2023-06-14T02:57:21;16.90;79.20
32476;DHT22;18929;48.008;10.882;2023-06-14T02:59:48;16.80;79.50
32476;DHT22;18929;48.008;10.882;2023-06-14T03:02:15;16.70;79.70
32476;DHT22;18929;48.008;10.882;2023-06-14T03:04:42;16.60;80.00
32476;DHT22;18929;48.008;10.882;2023-06-14T03:07:11;16.60;80.00
32476;DHT22;18929;48.008;10.882;2023-06-14T03:09:38;16.60;80.00
32476;DHT22;18929;48.008;10.882;2023-06-14T03:12:06;16.60;80.10
32476;DHT22;18929;48.008;10.882;2023-06-14T03:14:33;16.60;80.20
32476;DHT22;18929;48.008;10.882;2023-06-14T03:17:00;16.50;80.20
32476;DHT22;18929;48.008;10.882;2023-06-14T03:19:27;16.50;80.40
32476;DHT22;18929;48.008;10.882;2023-06-14T03:21:53;16.50;80.30
32476;DHT22;18929;48.008;10.882;2023-06-14T03:24:24;16.50;80.40
32476;DHT22;18929;48.008;10.882;2023-06-14T03:26:52;16.30;80.60
32476;DHT22;18929;48.008;10.882;2023-06-14T03:29:19;16.20;80.90
32476;DHT22;18929;48.008;10.882;2023-06-14T03:31:56;16.30;80.90
32476;DHT22;18929;48.008;10.882;2023-06-14T03:34:23;16.20;81.00
32476;DHT22;18929;48.008;10.882;2023-06-14T03:36:50;16.10;81.00
32476;DHT22;18929;48.008;10.882;2023-06-14T03:39:16;16.20;80.90
32476;DHT22;18929;48.008;10.882;2023-06-14T03:41:44;16.20;80.90
32476;DHT22;18929;48.008;10.882;2023-06-14T03:44:11;16.10;80.80
32476;DHT22;18929;48.008;10.882;2023-06-14T03:46:38;16.10;81.40
32476;DHT22;18929;48.008;10.882;2023-06-14T03:49:05;16.10;81.10
32476;DHT22;18929;48.008;10.882;2023-06-14T03:51:32;16.10;81.30
32476;DHT22;18929;48.008;10.882;2023-06-14T03:54:00;16.00;81.70
32476;DHT22;18929;48.008;10.882;2023-06-14T03:56:27;16.00;81.60
32476;DHT22;18929;48.008;10.882;2023-06-14T03:58:55;16.00;81.70
32476;DHT22;18929;48.008;10.882;2023-06-14T04:01:22;16.00;81.80
32476;DHT22;18929;48.008;10.882;2023-06-14T04:03:55;15.90;82.00
32476;DHT22;18929;48.008;10.882;2023-06-14T04:06:23;15.90;82.10
32476;DHT22;18929;48.008;10.882;2023-06-14T04:08:50;15.90;82.80
32476;DHT22;18929;48.008;10.882;2023-06-14T04:11:17;15.90;82.40
32476;DHT22;18929;48.008;10.882;2023-06-14T04:13:45;15.90;82.30
32476;DHT22;18929;48.008;10.882;2023-06-14T04:16:15;15.90;82.60
32476;DHT22;18929;48.008;10.882;2023-06-14T04:18:41;15.90;82.50
32476;DHT22;18929;48.008;10.882;2023-06-14T04:21:08;15.90;82.90
32476;DHT22;18929;48.008;10.882;2023-06-14T04:23:35;15.90;82.80
32476;DHT22;18929;48.008;10.882;2023-06-14T04:26:04;15.90;82.80
32476;DHT22;18929;48.008;10.882;2023-06-14T04:31:23;15.90;82.80
32476;DHT22;18929;48.008;10.882;2023-06-14T04:33:50;15.90;83.20
32476;DHT22;18929;48.008;10.882;2023-06-14T04:36:19;15.90;83.30
32476;DHT22;18929;48.008;10.882;2023-06-14T04:38:46;15.70;84.50
32476;DHT22;18929;48.008;10.882;2023-06-14T04:41:14;15.90;83.90
32476;DHT22;18929;48.008;10.882;2023-06-14T04:43:42;15.90;84.60
32476;DHT22;18929;48.008;10.882;2023-06-14T04:46:13;15.80;85.70
32476;DHT22;18929;48.008;10.882;2023-06-14T04:48:42;16.10;83.50
32476;DHT22;18929;48.008;10.882;2023-06-14T04:51:09;16.70;84.60
32476;DHT22;18929;48.008;10.882;2023-06-14T04:53:36;17.00;87.60
32476;DHT22;18929;48.008;10.882;2023-06-14T04:56:03;17.20;85.40
32476;DHT22;18929;48.008;10.882;2023-06-14T04:58:29;16.80;88.20
32476;DHT22;18929;48.008;10.882;2023-06-14T05:00:57;16.80;88.00
32476;DHT22;18929;48.008;10.882;2023-06-14T05:03:24;16.50;89.80
32476;DHT22;18929;48.008;10.882;2023-06-14T05:05:53;17.50;83.90
32476;DHT22;18929;48.008;10.882;2023-06-14T05:08:20;17.90;84.10
32476;DHT22;18929;48.008;10.882;2023-06-14T05:10:48;18.10;85.50
32476;DHT22;18929;48.008;10.882;2023-06-14T05:13:15;18.10;84.60
32476;DHT22;18929;48.008;10.882;2023-06-14T05:15:42;17.50;87.30
32476;DHT22;18929;48.008;10.882;2023-06-14T05:18:09;16.70;88.30
32476;DHT22;18929;48.008;10.882;2023-06-14T05:20:36;17.70;86.70
32476;DHT22;18929;48.008;10.882;2023-06-14T05:23:04;18.20;85.60
32476;DHT22;18929;48.008;10.882;2023-06-14T05:25:31;18.40;84.60
32476;DHT22;18929;48.008;10.882;2023-06-14T05:27:58;18.60;84.80
32476;DHT22;18929;48.008;10.882;2023-06-14T05:30:25;18.20;84.90
32476;DHT22;18929;48.008;10.882;2023-06-14T05:32:54;18.30;84.90
32476;DHT22;18929;48.008;10.882;2023-06-14T05:35:21;17.10;87.70
32476;DHT22;18929;48.008;10.882;2023-06-14T05:37:48;16.10;90.30
32476;DHT22;18929;48.008;10.882;2023-06-14T05:40:17;15.60;91.60
32476;DHT22;18929;48.008;10.882;2023-06-14T05:42:44;16.50;91.70
32476;DHT22;18929;48.008;10.882;2023-06-14T05:45:10;17.60;90.50
32476;DHT22;18929;48.008;10.882;2023-06-14T05:47:37;18.70;85.10
32476;DHT22;18929;48.008;10.882;2023-06-14T05:52:57;19.40;79.10
32476;DHT22;18929;48.008;10.882;2023-06-14T05:55:25;19.60;84.90
32476;DHT22;18929;48.008;10.882;2023-06-14T05:58:06;19.20;83.30
32476;DHT22;18929;48.008;10.882;2023-06-14T06:03:36;19.40;84.20
32476;DHT22;18929;48.008;10.882;2023-06-14T06:06:03;20.40;81.80
32476;DHT22;18929;48.008;10.882;2023-06-14T06:08:30;20.20;83.30
32476;DHT22;18929;48.008;10.882;2023-06-14T06:10:59;20.20;76.80
32476;DHT22;18929;48.008;10.882;2023-06-14T06:13:26;19.40;78.80
32476;DHT22;18929;48.008;10.882;2023-06-14T06:15:54;19.80;85.30
32476;DHT22;18929;48.008;10.882;2023-06-14T06:18:22;19.80;84.10
32476;DHT22;18929;48.008;10.882;2023-06-14T06:20:48;20.00;85.40
32476;DHT22;18929;48.008;10.882;2023-06-14T06:23:15;19.60;85.30
32476;DHT22;18929;48.008;10.882;2023-06-14T06:25:42;18.80;87.10
32476;DHT22;18929;48.008;10.882;2023-06-14T06:28:10;17.80;91.00
32476;DHT22;18929;48.008;10.882;2023-06-14T06:30:37;17.50;91.20
32476;DHT22;18929;48.008;10.882;2023-06-14T06:33:04;17.20;92.30
32476;DHT22;18929;48.008;10.882;2023-06-14T06:35:31;17.60;91.50
32476;DHT22;18929;48.008;10.882;2023-06-14T06:37:58;17.50;92.10
32476;DHT22;18929;48.008;10.882;2023-06-14T06:40:25;17.50;92.50
32476;DHT22;18929;48.008;10.882;2023-06-14T06:42:52;18.30;90.70
32476;DHT22;18929;48.008;10.882;2023-06-14T06:45:21;17.80;87.10
32476;DHT22;18929;48.008;10.882;2023-06-14T06:47:48;17.00;92.00
32476;DHT22;18929;48.008;10.882;2023-06-14T06:50:15;17.10;91.30
32476;DHT22;18929;48.008;10.882;2023-06-14T06:52:42;17.30;91.80
32476;DHT22;18929;48.008;10.882;2023-06-14T06:55:10;17.00;91.60
32476;DHT22;18929;48.008;10.882;2023-06-14T06:57:38;17.30;89.00
32476;DHT22;18929;48.008;10.882;2023-06-14T07:00:06;17.40;87.20
32476;DHT22;18929;48.008;10.882;2023-06-14T07:02:36;17.30;91.10
32476;DHT22;18929;48.008;10.882;2023-06-14T07:05:03;17.50;86.50
32476;DHT22;18929;48.008;10.882;2023-06-14T07:07:30;17.30;89.70
32476;DHT22;18929;48.008;10.882;2023-06-14T07:09:56;17.50;85.60
32476;DHT22;18929;48.008;10.882;2023-06-14T07:12:24;17.60;85.70
32476;DHT22;18929;48.008;10.882;2023-06-14T07:14:51;17.90;83.40
32476;DHT22;18929;48.008;10.882;2023-06-14T07:17:18;17.90;83.10
32476;DHT22;18929;48.008;10.882;2023-06-14T07:22:41;17.30;79.10
32476;DHT22;18929;48.008;10.882;2023-06-14T07:25:08;17.90;82.40
32476;DHT22;18929;48.008;10.882;2023-06-14T07:27:35;18.10;81.40
32476;DHT22;18929;48.008;10.882;2023-06-14T07:30:02;17.80;82.80
32476;DHT22;18929;48.008;10.882;2023-06-14T07:32:29;18.00;83.10
32476;DHT22;18929;48.008;10.882;2023-06-14T07:34:56;18.20;83.10
32476;DHT22;18929;48.008;10.882;2023-06-14T07:37:23;18.50;83.70
32476;DHT22;18929;48.008;10.882;2023-06-14T07:39:51;18.50;78.50
32476;DHT22;18929;48.008;10.882;2023-06-14T07:42:18;18.50;79.40
32476;DHT22;18929;48.008;10.882;2023-06-14T07:44:45;18.40;81.20
32476;DHT22;18929;48.008;10.882;2023-06-14T07:47:12;18.90;81.00
32476;DHT22;18929;48.008;10.882;2023-06-14T07:49:39;18.80;80.30
32476;DHT22;18929;48.008;10.882;2023-06-14T07:52:06;18.70;80.20
32476;DHT22;18929;48.008;10.882;2023-06-14T07:54:33;18.80;79.40
32476;DHT22;18929;48.008;10.882;2023-06-14T07:57:01;18.40;81.70
32476;DHT22;18929;48.008;10.882;2023-06-14T07:59:28;18.60;78.00
32476;DHT22;18929;48.008;10.882;2023-06-14T08:01:55;18.60;78.10
32476;DHT22;18929;48.008;10.882;2023-06-14T08:04:22;18.80;76.30
32476;DHT22;18929;48.008;10.882;2023-06-14T08:06:49;18.60;79.10
32476;DHT22;18929;48.008;10.882;2023-06-14T08:09:16;18.50;75.40
32476;DHT22;18929;48.008;10.882;2023-06-14T08:11:42;18.60;77.80
32476;DHT22;18929;48.008;10.882;2023-06-14T08:14:11;18.50;76.30
32476;DHT22;18929;48.008;10.882;2023-06-14T08:16:38;18.90;74.20
32476;DHT22;18929;48.008;10.882;2023-06-14T08:19:04;19.00;74.70
32476;DHT22;18929;48.008;10.882;2023-06-14T08:21:32;19.00;72.20
32476;DHT22;18929;48.008;10.882;2023-06-14T08:23:59;18.70;77.40
32476;DHT22;18929;48.008;10.882;2023-06-14T08:26:25;18.80;74.60
32476;DHT22;18929;48.008;10.882;2023-06-14T08:28:54;19.30;72.60
32476;DHT22;18929;48.008;10.882;2023-06-14T08:31:22;18.80;76.90
32476;DHT22;18929;48.008;10.882;2023-06-14T08:33:50;18.90;73.80
32476;DHT22;18929;48.008;10.882;2023-06-14T08:36:16;19.20;72.50
32476;DHT22;18929;48.008;10.882;2023-06-14T08:38:43;19.20;70.10
32476;DHT22;18929;48.008;10.882;2023-06-14T08:41:11;19.40;71.90
32476;DHT22;18929;48.008;10.882;2023-06-14T08:43:38;19.40;73.70
32476;DHT22;18929;48.008;10.882;2023-06-14T08:46:06;19.40;70.80
32476;DHT22;18929;48.008;10.882;2023-06-14T08:48:35;19.60;72.10
32476;DHT22;18929;48.008;10.882;2023-06-14T08:51:03;19.40;69.30
32476;DHT22;18929;48.008;10.882;2023-06-14T08:53:31;20.00;71.40
32476;DHT22;18929;48.008;10.882;2023-06-14T08:55:59;19.90;70.40
32476;DHT22;18929;48.008;10.882;2023-06-14T08:58:27;19.00;73.50
32476;DHT22;18929;48.008;10.882;2023-06-14T09:00:55;19.20;74.20
32476;DHT22;18929;48.008;10.882;2023-06-14T09:03:21;19.60;73.10
32476;DHT22;18929;48.008;10.882;2023-06-14T09:05:57;19.70;71.90
32476;DHT22;18929;48.008;10.882;2023-06-14T09:08:26;19.50;72.60
32476;DHT22;18929;48.008;10.882;2023-06-14T09:10:56;19.90;72.50
32476;DHT22;18929;48.008;10.882;2023-06-14T09:13:23;19.90;71.60
32476;DHT22;18929;48.008;10.882;2023-06-14T09:15:50;19.70;69.50
32476;DHT22;18929;48.008;10.882;2023-06-14T09:18:17;19.40;72.90
32476;DHT22;18929;48.008;10.882;2023-06-14T09:20:45;20.30;70.50
32476;DHT22;18929;48.008;10.882;2023-06-14T09:23:15;20.20;69.80
32476;DHT22;18929;48.008;10.882;2023-06-14T09:25:46;20.60;70.10
32476;DHT22;18929;48.008;10.882;2023-06-14T09:28:13;19.80;71.00
32476;DHT22;18929;48.008;10.882;2023-06-14T09:30:40;19.90;69.80
32476;DHT22;18929;48.008;10.882;2023-06-14T09:33:07;20.10;70.90
32476;DHT22;18929;48.008;10.882;2023-06-14T09:35:34;20.30;68.60
32476;DHT22;18929;48.008;10.882;2023-06-14T09:38:01;20.10;69.60
32476;DHT22;18929;48.008;10.882;2023-06-14T09:40:30;20.70;68.20
32476;DHT22;18929;48.008;10.882;2023-06-14T09:43:00;20.40;67.30
32476;DHT22;18929;48.008;10.882;2023-06-14T09:45:27;19.90;71.20
32476;DHT22;18929;48.008;10.882;2023-06-14T09:47:55;20.20;70.90
32476;DHT22;18929;48.008;10.882;2023-06-14T09:50:21;20.20;70.80
32476;DHT22;18929;48.008;10.882;2023-06-14T09:52:48;20.50;66.60
32476;DHT22;18929;48.008;10.882;2023-06-14T09:55:18;20.90;67.90
32476;DHT22;18929;48.008;10.882;2023-06-14T09:57:47;20.30;67.60
32476;DHT22;18929;48.008;10.882;2023-06-14T10:00:15;20.30;68.70
32476;DHT22;18929;48.008;10.882;2023-06-14T10:02:44;20.50;66.20
32476;DHT22;18929;48.008;10.882;2023-06-14T10:05:14;20.20;68.80
32476;DHT22;18929;48.008;10.882;2023-06-14T10:07:44;20.30;69.10
32476;DHT22;18929;48.008;10.882;2023-06-14T10:10:14;20.70;67.60
32476;DHT22;18929;48.008;10.882;2023-06-14T10:12:41;20.30;66.60
32476;DHT22;18929;48.008;10.882;2023-06-14T10:15:10;20.40;68.50
32476;DHT22;18929;48.008;10.882;2023-06-14T10:17:39;20.70;66.60
32476;DHT22;18929;48.008;10.882;2023-06-14T10:20:16;20.60;68.00
32476;DHT22;18929;48.008;10.882;2023-06-14T10:22:47;20.80;67.30
32476;DHT22;18929;48.008;10.882;2023-06-14T10:25:26;21.40;66.00
32476;DHT22;18929;48.008;10.882;2023-06-14T10:27:55;20.70;63.70
32476;DHT22;18929;48.008;10.882;2023-06-14T10:30:29;20.90;64.10
32476;DHT22;18929;48.008;10.882;2023-06-14T10:33:03;21.30;64.60
32476;DHT22;18929;48.008;10.882;2023-06-14T10:35:30;20.90;60.90
32476;DHT22;18929;48.008;10.882;2023-06-14T10:38:05;20.70;64.80
32476;DHT22;18929;48.008;10.882;2023-06-14T10:40:32;21.10;64.30
32476;DHT22;18929;48.008;10.882;2023-06-14T10:43:00;21.00;63.00
32476;DHT22;18929;48.008;10.882;2023-06-14T10:45:27;21.10;62.20
32476;DHT22;18929;48.008;10.882;2023-06-14T10:47:56;20.60;67.60
32476;DHT22;18929;48.008;10.882;2023-06-14T10:50:27;21.00;65.60
32476;DHT22;18929;48.008;10.882;2023-06-14T10:52:54;20.80;67.00
32476;DHT22;18929;48.008;10.882;2023-06-14T10:55:21;21.10;64.10
32476;DHT22;18929;48.008;10.882;2023-06-14T10:57:49;20.70;66.50
32476;DHT22;18929;48.008;10.882;2023-06-14T11:00:17;21.20;65.90
32476;DHT22;18929;48.008;10.882;2023-06-14T11:05:51;20.60;65.10
32476;DHT22;18929;48.008;10.882;2023-06-14T11:11:05;20.80;68.00
32476;DHT22;18929;48.008;10.882;2023-06-14T11:13:32;21.50;65.30
32476;DHT22;18929;48.008;10.882;2023-06-14T11:15:59;21.80;63.40
32476;DHT22;18929;48.008;10.882;2023-06-14T11:18:26;21.90;65.40
32476;DHT22;18929;48.008;10.882;2023-06-14T11:20:56;21.40;63.10
32476;DHT22;18929;48.008;10.882;2023-06-14T11:23:23;21.70;64.90
32476;DHT22;18929;48.008;10.882;2023-06-14T11:25:50;21.60;63.30
32476;DHT22;18929;48.008;10.882;2023-06-14T11:28:17;21.90;62.70
32476;DHT22;18929;48.008;10.882;2023-06-14T11:30:45;21.40;62.80
32476;DHT22;18929;48.008;10.882;2023-06-14T11:33:16;21.90;64.70
32476;DHT22;18929;48.008;10.882;2023-06-14T11:35:43;21.70;65.10
32476;DHT22;18929;48.008;10.882;2023-06-14T11:38:12;21.80;62.60
32476;DHT22;18929;48.008;10.882;2023-06-14T11:40:39;21.90;65.00
32476;DHT22;18929;48.008;10.882;2023-06-14T11:43:06;22.10;60.10
32476;DHT22;18929;48.008;10.882;2023-06-14T11:45:32;21.90;62.60
32476;DHT22;18929;48.008;10.882;2023-06-14T11:47:59;22.40;62.80
32476;DHT22;18929;48.008;10.882;2023-06-14T11:50:27;22.50;61.60
32476;DHT22;18929;48.008;10.882;2023-06-14T11:52:54;22.00;63.50
32476;DHT22;18929;48.008;10.882;2023-06-14T11:55:22;21.90;61.80
32476;DHT22;18929;48.008;10.882;2023-06-14T11:57:49;22.30;63.00
32476;DHT22;18929;48.008;10.882;2023-06-14T12:00:16;22.60;62.40
32476;DHT22;18929;48.008;10.882;2023-06-14T12:02:51;22.20;62.80
32476;DHT22;18929;48.008;10.882;2023-06-14T12:05:20;22.30;61.60
32476;DHT22;18929;48.008;10.882;2023-06-14T12:07:47;22.10;60.30
32476;DHT22;18929;48.008;10.882;2023-06-14T12:10:14;22.10;63.60
32476;DHT22;18929;48.008;10.882;2023-06-14T12:12:42;22.20;63.30
32476;DHT22;18929;48.008;10.882;2023-06-14T12:15:09;22.30;62.10
32476;DHT22;18929;48.008;10.882;2023-06-14T12:17:38;22.40;63.60
32476;DHT22;18929;48.008;10.882;2023-06-14T12:20:08;22.70;63.60
32476;DHT22;18929;48.008;10.882;2023-06-14T12:22:38;22.90;64.60
32476;DHT22;18929;48.008;10.882;2023-06-14T12:25:05;22.80;62.00
32476;DHT22;18929;48.008;10.882;2023-06-14T12:27:35;23.00;63.10
32476;DHT22;18929;48.008;10.882;2023-06-14T12:30:04;22.80;60.40
32476;DHT22;18929;48.008;10.882;2023-06-14T12:32:33;23.20;60.10
32476;DHT22;18929;48.008;10.882;2023-06-14T12:34:59;23.30;60.70
32476;DHT22;18929;48.008;10.882;2023-06-14T12:37:26;23.40;62.10
32476;DHT22;18929;48.008;10.882;2023-06-14T12:39:53;22.40;61.90
32476;DHT22;18929;48.008;10.882;2023-06-14T12:42:20;22.30;65.60
32476;DHT22;18929;48.008;10.882;2023-06-14T12:44:47;22.00;63.30
32476;DHT22;18929;48.008;10.882;2023-06-14T12:47:17;22.20;63.60
32476;DHT22;18929;48.008;10.882;2023-06-14T12:49:43;22.60;63.40
32476;DHT22;18929;48.008;10.882;2023-06-14T12:52:11;22.50;64.90
32476;DHT22;18929;48.008;10.882;2023-06-14T12:54:37;22.70;65.80
32476;DHT22;18929;48.008;10.882;2023-06-14T12:57:05;22.50;64.90
32476;DHT22;18929;48.008;10.882;2023-06-14T12:59:32;22.50;64.30
32476;DHT22;18929;48.008;10.882;2023-06-14T13:02:00;22.60;64.80
32476;DHT22;18929;48.008;10.882;2023-06-14T13:04:37;22.40;66.60
32476;DHT22;18929;48.008;10.882;2023-06-14T13:07:04;22.40;63.40
32476;DHT22;18929;48.008;10.882;2023-06-14T13:09:31;22.80;63.70
32476;DHT22;18929;48.008;10.882;2023-06-14T13:11:58;23.20;63.40
32476;DHT22;18929;48.008;10.882;2023-06-14T13:14:25;22.90;62.40
32476;DHT22;18929;48.008;10.882;2023-06-14T13:16:52;22.90;61.80
32476;DHT22;18929;48.008;10.882;2023-06-14T13:19:19;23.40;64.40
32476;DHT22;18929;48.008;10.882;2023-06-14T13:21:47;23.40;65.50
32476;DHT22;18929;48.008;10.882;2023-06-14T13:24:14;23.30;62.80
32476;DHT22;18929;48.008;10.882;2023-06-14T13:26:41;23.20;62.80
32476;DHT22;18929;48.008;10.882;2023-06-14T13:29:08;22.90;63.80
32476;DHT22;18929;48.008;10.882;2023-06-14T13:31:35;23.20;63.60
32476;DHT22;18929;48.008;10.882;2023-06-14T13:34:02;22.30;66.40
32476;DHT22;18929;48.008;10.882;2023-06-14T13:36:30;22.40;65.40
32476;DHT22;18929;48.008;10.882;2023-06-14T13:38:58;22.30;67.00
32476;DHT22;18929;48.008;10.882;2023-06-14T13:41:25;22.50;66.50
32476;DHT22;18929;48.008;10.882;2023-06-14T13:43:57;22.90;64.20
32476;DHT22;18929;48.008;10.882;2023-06-14T13:46:24;23.50;63.80
32476;DHT22;18929;48.008;10.882;2023-06-14T13:48:50;23.90;62.90
32476;DHT22;18929;48.008;10.882;2023-06-14T13:51:17;23.90;62.70
32476;DHT22;18929;48.008;10.882;2023-06-14T13:53:45;23.90;60.80
32476;DHT22;18929;48.008;10.882;2023-06-14T13:56:14;23.90;64.50
32476;DHT22;18929;48.008;10.882;2023-06-14T13:58:41;23.90;64.60
32476;DHT22;18929;48.008;10.882;2023-06-14T14:01:07;23.80;63.30
32476;DHT22;18929;48.008;10.882;2023-06-14T14:03:35;24.00;61.40
32476;DHT22;18929;48.008;10.882;2023-06-14T14:06:02;23.60;62.50
32476;DHT22;18929;48.008;10.882;2023-06-14T14:08:29;23.90;63.30
32476;DHT22;18929;48.008;10.882;2023-06-14T14:10:56;23.80;62.10
32476;DHT22;18929;48.008;10.882;2023-06-14T14:13:25;23.40;64.90
32476;DHT22;18929;48.008;10.882;2023-06-14T14:15:51;24.00;61.10
32476;DHT22;18929;48.008;10.882;2023-06-14T14:18:19;23.30;61.20
32476;DHT22;18929;48.008;10.882;2023-06-14T14:20:47;23.60;61.10
32476;DHT22;18929;48.008;10.882;2023-06-14T14:23:14;24.00;61.20
32476;DHT22;18929;48.008;10.882;2023-06-14T14:25:40;23.80;64.90
32476;DHT22;18929;48.008;10.882;2023-06-14T14:28:07;24.70;60.40
32476;DHT22;18929;48.008;10.882;2023-06-14T14:30:36;24.90;63.40
32476;DHT22;18929;48.008;10.882;2023-06-14T14:33:05;23.50;61.10
32476;DHT22;18929;48.008;10.882;2023-06-14T14:35:32;23.20;61.00
32476;DHT22;18929;48.008;10.882;2023-06-14T14:37:58;23.40;62.30
32476;DHT22;18929;48.008;10.882;2023-06-14T14:40:25;23.00;60.90
32476;DHT22;18929;48.008;10.882;2023-06-14T14:42:52;23.30;62.00
32476;DHT22;18929;48.008;10.882;2023-06-14T14:45:19;22.50;61.10
32476;DHT22;18929;48.008;10.882;2023-06-14T14:47:47;23.30;64.80
32476;DHT22;18929;48.008;10.882;2023-06-14T14:50:14;23.90;64.90
32476;DHT22;18929;48.008;10.882;2023-06-14T14:52:42;23.40;58.00
32476;DHT22;18929;48.008;10.882;2023-06-14T14:55:08;23.30;62.40
32476;DHT22;18929;48.008;10.882;2023-06-14T14:57:35;23.00;60.60
32476;DHT22;18929;48.008;10.882;2023-06-14T15:00:03;23.80;66.00
32476;DHT22;18929;48.008;10.882;2023-06-14T15:02:31;23.80;65.40
32476;DHT22;18929;48.008;10.882;2023-06-14T15:04:59;24.30;63.90
32476;DHT22;18929;48.008;10.882;2023-06-14T15:07:26;23.90;59.50
32476;DHT22;18929;48.008;10.882;2023-06-14T15:09:53;23.80;59.90
32476;DHT22;18929;48.008;10.882;2023-06-14T15:12:20;23.70;59.00
32476;DHT22;18929;48.008;10.882;2023-06-14T15:14:49;24.00;63.90
32476;DHT22;18929;48.008;10.882;2023-06-14T15:17:16;23.70;58.90
32476;DHT22;18929;48.008;10.882;2023-06-14T15:19:43;24.30;60.20
32476;DHT22;18929;48.008;10.882;2023-06-14T15:22:11;23.70;60.10
32476;DHT22;18929;48.008;10.882;2023-06-14T15:24:38;23.60;62.70
32476;DHT22;18929;48.008;10.882;2023-06-14T15:27:05;24.10;62.50
32476;DHT22;18929;48.008;10.882;2023-06-14T15:29:35;23.90;59.50
32476;DHT22;18929;48.008;10.882;2023-06-14T15:32:02;23.10;58.50
32476;DHT22;18929;48.008;10.882;2023-06-14T15:34:30;23.50;65.60
32476;DHT22;18929;48.008;10.882;2023-06-14T15:36:57;23.20;58.10